sensor_id;sensor_type;location;lat;lon;timestamp;pressure;altitude;pressure_sealevel;temperature;humidity
76108;BME280;64834;52.516;10.528;2023-07-28T00:01:31;99632.69;;;17.15;100.00
76108;BME280;64834;52.516;10.528;2023-07-28T00:03:57;99629.22;;;17.19;100.00
76108;BME280;64834;52.516;10.528;2023-07-28T00:06:25;99634.44;;;17.15;100.00
76108;BME280;64834;52.516;10.528;2023-07-28T00:08:50;99634.44;;;17.13;100.00
76108;BME280;64834;52.516;10.528;2023-07-28T00:11:16;99627.38;;;17.12;100.00
76108;BME280;64834;52.516;10.528;2023-07-28T00:13:42;99623.78;;;17.09;100.00
76108;BME280;64834;52.516;10.528;2023-07-28T00:16:09;99627.38;;;17.14;100.00
76108;BME280;64834;52.516;10.528;2023-07-28T00:18:35;99628.25;;;17.11;100.00
76108;BME280;64834;52.516;10.528;2023-07-28T00:21:01;99625.63;;;17.14;100.00
76108;BME280;64834;52.516;10.528;2023-07-28T00:23:27;99625.63;;;17.16;100.00
76108;BME280;64834;52.516;10.528;2023-07-28T00:25:53;99629.13;;;17.13;100.00
76108;BME280;64834;52.516;10.528;2023-07-28T00:28:18;99625.53;;;17.05;100.00
76108;BME280;64834;52.516;10.528;2023-07-28T00:30:43;99624.66;;;17.06;100.00
76108;BME280;64834;52.516;10.528;2023-07-28T00:33:09;99627.28;;;17.05;100.00
76108;BME280;64834;52.516;10.528;2023-07-28T00:35:34;99629.16;;;17.15;100.00
76108;BME280;64834;52.516;10.528;2023-07-28T00:37:59;99622.06;;;17.11;100.00
76108;BME280;64834;52.516;10.528;2023-07-28T00:40:25;99624.72;;;17.11;100.00
76108;BME280;64834;52.516;10.528;2023-07-28T00:42:50;99618.47;;;17.06;100.00
76108;BME280;64834;52.516;10.528;2023-07-28T00:45:15;99616.72;;;17.08;100.00
76108;BME280;64834;52.516;10.528;2023-07-28T00:47:41;99621.13;;;17.07;100.00
76108;BME280;64834;52.516;10.528;2023-07-28T00:50:08;99633.47;;;17.05;100.00
76108;BME280;64834;52.516;10.528;2023-07-28T00:52:35;99631.72;;;17.09;100.00
76108;BME280;64834;52.516;10.528;2023-07-28T00:55:01;99633.44;;;17.04;100.00
76108;BME280;64834;52.516;10.528;2023-07-28T00:57:26;99632.56;;;17.05;100.00
76108;BME280;64834;52.516;10.528;2023-07-28T00:59:52;99634.34;;;17.07;100.00
76108;BME280;64834;52.516;10.528;2023-07-28T01:02:18;99628.19;;;17.08;100.00
76108;BME280;64834;52.516;10.528;2023-07-28T01:04:44;99629.97;;;17.09;100.00
76108;BME280;64834;52.516;10.528;2023-07-28T01:07:14;99622.94;;;17.10;100.00
76108;BME280;64834;52.516;10.528;2023-07-28T01:09:49;99626.44;;;17.09;100.00
76108;BME280;64834;52.516;10.528;2023-07-28T01:12:16;99611.44;;;17.08;100.00
76108;BME280;64834;52.516;10.528;2023-07-28T01:14:43;99614.09;;;17.09;100.00
76108;BME280;64834;52.516;10.528;2023-07-28T01:17:09;99613.22;;;17.09;100.00
76108;BME280;64834;52.516;10.528;2023-07-28T01:19:34;99607.91;;;17.04;100.00
76108;BME280;64834;52.516;10.528;2023-07-28T01:22:12;99610.50;;;17.03;100.00
76108;BME280;64834;52.516;10.528;2023-07-28T01:24:51;99615.75;;;16.99;100.00
76108;BME280;64834;52.516;10.528;2023-07-28T01:27:21;99616.66;;;17.03;100.00
76108;BME280;64834;52.516;10.528;2023-07-28T01:29:47;99609.63;;;17.02;100.00
76108;BME280;64834;52.516;10.528;2023-07-28T01:32:13;99609.63;;;17.02;100.00
76108;BME280;64834;52.516;10.528;2023-07-28T01:34:39;99605.19;;;16.99;100.00
76108;BME280;64834;52.516;10.528;2023-07-28T01:37:04;99606.97;;;17.01;100.00
76108;BME280;64834;52.516;10.528;2023-07-28T01:39:29;99606.00;;;16.95;100.00
76108;BME280;64834;52.516;10.528;2023-07-28T01:41:55;99600.78;;;17.00;100.00
76108;BME280;64834;52.516;10.528;2023-07-28T01:44:20;99605.19;;;16.98;100.00
76108;BME280;64834;52.516;10.528;2023-07-28T01:46:45;99600.78;;;16.98;100.00
76108;BME280;64834;52.516;10.528;2023-07-28T01:49:11;99602.47;;;16.95;100.00
76108;BME280;64834;52.516;10.528;2023-07-28T01:51:36;99604.25;;;16.96;100.00
76108;BME280;64834;52.516;10.528;2023-07-28T01:54:01;99614.88;;;17.01;100.00
76108;BME280;64834;52.516;10.528;2023-07-28T01:56:27;99614.88;;;16.99;100.00
76108;BME280;64834;52.516;10.528;2023-07-28T01:58:52;99606.94;;;16.97;100.00
76108;BME280;64834;52.516;10.528;2023-07-28T02:01:17;99610.47;;;16.98;100.00
76108;BME280;64834;52.516;10.528;2023-07-28T02:03:43;99602.50;;;16.96;100.00
76108;BME280;64834;52.516;10.528;2023-07-28T02:06:08;99611.31;;;16.97;100.00
76108;BME280;64834;52.516;10.528;2023-07-28T02:08:33;99604.31;;;16.99;100.00
76108;BME280;64834;52.516;10.528;2023-07-28T02:10:59;99606.00;;;16.95;100.00
76108;BME280;64834;52.516;10.528;2023-07-28T02:13:24;99608.66;;;16.95;100.00
76108;BME280;64834;52.516;10.528;2023-07-28T02:15:49;99620.06;;;16.91;100.00
76108;BME280;64834;52.516;10.528;2023-07-28T02:18:15;99613.94;;;16.95;100.00
76108;BME280;64834;52.516;10.528;2023-07-28T02:20:40;99618.31;;;16.92;100.00
76108;BME280;64834;52.516;10.528;2023-07-28T02:23:05;99613.94;;;16.94;100.00
76108;BME280;64834;52.516;10.528;2023-07-28T02:25:31;99613.91;;;16.92;100.00
76108;BME280;64834;52.516;10.528;2023-07-28T02:27:56;99612.97;;;16.89;100.00
76108;BME280;64834;52.516;10.528;2023-07-28T02:30:22;99624.34;;;16.83;100.00
76108;BME280;64834;52.516;10.528;2023-07-28T02:32:48;99628.75;;;16.83;100.00
76108;BME280;64834;52.516;10.528;2023-07-28T02:35:13;99617.28;;;16.79;100.00
76108;BME280;64834;52.516;10.528;2023-07-28T02:37:38;99623.47;;;16.83;100.00
76108;BME280;64834;52.516;10.528;2023-07-28T02:40:04;99616.41;;;16.82;100.00
76108;BME280;64834;52.516;10.528;2023-07-28T02:42:29;99611.94;;;16.78;100.00
76108;BME280;64834;52.516;10.528;2023-07-28T02:44:56;99617.22;;;16.78;100.00
76108;BME280;64834;52.516;10.528;2023-07-28T02:47:21;99615.47;;;16.77;100.00
76108;BME280;64834;52.516;10.528;2023-07-28T02:49:46;99611.97;;;16.79;100.00
76108;BME280;64834;52.516;10.528;2023-07-28T02:52:12;99607.53;;;16.77;100.00
76108;BME280;64834;52.516;10.528;2023-07-28T02:54:37;99613.75;;;16.79;100.00
76108;BME280;64834;52.516;10.528;2023-07-28T02:57:02;99616.38;;;16.79;100.00
76108;BME280;64834;52.516;10.528;2023-07-28T02:59:28;99612.88;;;16.81;100.00
76108;BME280;64834;52.516;10.528;2023-07-28T03:01:53;99611.97;;;16.79;100.00
76108;BME280;64834;52.516;10.528;2023-07-28T03:04:19;99619.94;;;16.82;100.00
76108;BME280;64834;52.516;10.528;2023-07-28T03:06:45;99626.97;;;16.82;100.00
76108;BME280;64834;52.516;10.528;2023-07-28T03:09:10;99618.16;;;16.80;100.00
76108;BME280;64834;52.516;10.528;2023-07-28T03:11:36;99619.06;;;16.82;100.00
76108;BME280;64834;52.516;10.528;2023-07-28T03:14:01;99609.34;;;16.79;100.00
76108;BME280;64834;52.516;10.528;2023-07-28T03:16:27;99613.75;;;16.79;100.00
76108;BME280;64834;52.516;10.528;2023-07-28T03:18:53;99626.09;;;16.80;100.00
76108;BME280;64834;52.516;10.528;2023-07-28T03:21:18;99626.09;;;16.81;100.00
76108;BME280;64834;52.516;10.528;2023-07-28T03:23:43;99620.72;;;16.75;100.00
76108;BME280;64834;52.516;10.528;2023-07-28T03:26:09;99623.38;;;16.77;100.00
76108;BME280;64834;52.516;10.528;2023-07-28T03:28:34;99627.69;;;16.70;100.00
76108;BME280;64834;52.516;10.528;2023-07-28T03:30:59;99627.69;;;16.70;100.00
76108;BME280;64834;52.516;10.528;2023-07-28T03:33:25;99629.53;;;16.74;100.00
76108;BME280;64834;52.516;10.528;2023-07-28T03:35:50;99644.50;;;16.74;100.00
76108;BME280;64834;52.516;10.528;2023-07-28T03:38:15;99655.06;;;16.75;100.00
76108;BME280;64834;52.516;10.528;2023-07-28T03:40:41;99660.38;;;16.77;100.00
76108;BME280;64834;52.516;10.528;2023-07-28T03:43:06;99663.00;;;16.77;100.00
76108;BME280;64834;52.516;10.528;2023-07-28T03:45:31;99663.03;;;16.78;100.00
76108;BME280;64834;52.516;10.528;2023-07-28T03:47:57;99668.28;;;16.75;100.00
76108;BME280;64834;52.516;10.528;2023-07-28T03:50:22;99671.78;;;16.74;100.00
76108;BME280;64834;52.516;10.528;2023-07-28T03:52:49;99660.34;;;16.75;100.00
76108;BME280;64834;52.516;10.528;2023-07-28T03:55:14;99670.03;;;16.75;100.00
76108;BME280;64834;52.516;10.528;2023-07-28T03:57:40;99668.28;;;16.75;100.00
76108;BME280;64834;52.516;10.528;2023-07-28T04:00:06;99672.69;;;16.76;100.00
76108;BME280;64834;52.516;10.528;2023-07-28T04:02:31;99675.34;;;16.76;100.00
76108;BME280;64834;52.516;10.528;2023-07-28T04:04:58;99674.47;;;16.77;100.00
76108;BME280;64834;52.516;10.528;2023-07-28T04:07:23;99675.41;;;16.79;100.00
76108;BME280;64834;52.516;10.528;2023-07-28T04:09:48;99682.44;;;16.80;100.00
76108;BME280;64834;52.516;10.528;2023-07-28T04:12:14;99677.16;;;16.79;100.00
76108;BME280;64834;52.516;10.528;2023-07-28T04:14:39;99683.31;;;16.79;100.00
76108;BME280;64834;52.516;10.528;2023-07-28T04:17:06;99680.69;;;16.81;100.00
76108;BME280;64834;52.516;10.528;2023-07-28T04:19:32;99678.00;;;16.78;100.00
76108;BME280;64834;52.516;10.528;2023-07-28T04:22:00;99683.25;;;16.76;100.00
76108;BME280;64834;52.516;10.528;2023-07-28T04:24:25;99684.16;;;16.78;100.00
76108;BME280;64834;52.516;10.528;2023-07-28T04:26:50;99681.53;;;16.78;100.00
76108;BME280;64834;52.516;10.528;2023-07-28T04:29:16;99685.09;;;16.79;100.00
76108;BME280;64834;52.516;10.528;2023-07-28T04:31:42;99673.69;;;16.84;100.00
76108;BME280;64834;52.516;10.528;2023-07-28T04:34:07;99682.47;;;16.83;100.00
76108;BME280;64834;52.516;10.528;2023-07-28T04:36:32;99684.28;;;16.86;100.00
76108;BME280;64834;52.516;10.528;2023-07-28T04:38:58;99677.25;;;16.85;100.00
76108;BME280;64834;52.516;10.528;2023-07-28T04:41:23;99675.50;;;16.88;100.00
76108;BME280;64834;52.516;10.528;2023-07-28T04:43:48;99679.91;;;16.89;100.00
76108;BME280;64834;52.516;10.528;2023-07-28T04:46:14;99692.25;;;16.90;100.00
76108;BME280;64834;52.516;10.528;2023-07-28T04:48:39;99695.84;;;16.92;100.00
76108;BME280;64834;52.516;10.528;2023-07-28T04:51:04;99689.69;;;16.95;100.00
76108;BME280;64834;52.516;10.528;2023-07-28T04:53:29;99694.97;;;16.95;100.00
76108;BME280;64834;52.516;10.528;2023-07-28T04:55:55;99694.97;;;16.93;100.00
76108;BME280;64834;52.516;10.528;2023-07-28T04:58:20;99696.75;;;16.96;100.00
76108;BME280;64834;52.516;10.528;2023-07-28T05:00:46;99701.13;;;16.91;100.00
76108;BME280;64834;52.516;10.528;2023-07-28T05:03:11;99704.69;;;16.96;100.00
76108;BME280;64834;52.516;10.528;2023-07-28T05:05:37;99697.63;;;16.95;100.00
76108;BME280;64834;52.516;10.528;2023-07-28T05:08:02;99694.91;;;16.90;100.00
76108;BME280;64834;52.516;10.528;2023-07-28T05:10:27;99702.00;;;16.93;100.00
76108;BME280;64834;52.516;10.528;2023-07-28T05:12:53;99701.13;;;16.92;100.00
76108;BME280;64834;52.516;10.528;2023-07-28T05:15:18;99702.03;;;16.96;100.00
76108;BME280;64834;52.516;10.528;2023-07-28T05:17:43;99701.94;;;16.90;100.00
76108;BME280;64834;52.516;10.528;2023-07-28T05:20:09;99704.66;;;16.94;100.00
76108;BME280;64834;52.516;10.528;2023-07-28T05:22:34;99706.44;;;16.95;100.00
76108;BME280;64834;52.516;10.528;2023-07-28T05:25:00;99716.03;;;16.90;100.00
76108;BME280;64834;52.516;10.528;2023-07-28T05:27:25;99716.09;;;16.93;100.00
76108;BME280;64834;52.516;10.528;2023-07-28T05:29:50;99717.94;;;16.97;100.00
76108;BME280;64834;52.516;10.528;2023-07-28T05:32:16;99714.44;;;16.98;100.00
76108;BME280;64834;52.516;10.528;2023-07-28T05:34:42;99716.19;;;16.99;100.00
76108;BME280;64834;52.516;10.528;2023-07-28T05:37:08;99726.75;;;16.98;100.00
76108;BME280;64834;52.516;10.528;2023-07-28T05:39:33;99730.31;;;17.02;100.00
76108;BME280;64834;52.516;10.528;2023-07-28T05:41:58;99728.59;;;17.04;100.00
76108;BME280;64834;52.516;10.528;2023-07-28T05:44:24;99727.69;;;17.03;100.00
76108;BME280;64834;52.516;10.528;2023-07-28T05:46:49;99728.63;;;17.07;100.00
76108;BME280;64834;52.516;10.528;2023-07-28T05:49:15;99726.84;;;17.06;100.00
76108;BME280;64834;52.516;10.528;2023-07-28T05:51:40;99724.22;;;17.06;100.00
76108;BME280;64834;52.516;10.528;2023-07-28T05:54:05;99737.47;;;17.09;100.00
76108;BME280;64834;52.516;10.528;2023-07-28T05:56:31;99734.84;;;17.10;100.00
76108;BME280;64834;52.516;10.528;2023-07-28T05:58:56;99727.75;;;17.08;100.00
76108;BME280;64834;52.516;10.528;2023-07-28T06:01:22;99740.97;;;17.08;100.00
76108;BME280;64834;52.516;10.528;2023-07-28T06:03:47;99738.41;;;17.12;100.00
76108;BME280;64834;52.516;10.528;2023-07-28T06:06:13;99744.66;;;17.19;100.00
76108;BME280;64834;52.516;10.528;2023-07-28T06:08:38;99740.31;;;17.24;100.00
76108;BME280;64834;52.516;10.528;2023-07-28T06:11:06;99743.09;;;17.35;100.00
76108;BME280;64834;52.516;10.528;2023-07-28T06:13:32;99751.03;;;17.35;100.00
76108;BME280;64834;52.516;10.528;2023-07-28T06:15:58;99757.19;;;17.34;100.00
76108;BME280;64834;52.516;10.528;2023-07-28T06:18:24;99756.34;;;17.36;100.00
76108;BME280;64834;52.516;10.528;2023-07-28T06:20:49;99760.72;;;17.34;100.00
76108;BME280;64834;52.516;10.528;2023-07-28T06:23:15;99760.69;;;17.31;100.00
76108;BME280;64834;52.516;10.528;2023-07-28T06:25:40;99767.69;;;17.27;100.00
76108;BME280;64834;52.516;10.528;2023-07-28T06:28:08;99765.91;;;17.26;100.00
76108;BME280;64834;52.516;10.528;2023-07-28T06:30:34;99769.34;;;17.19;100.00
76108;BME280;64834;52.516;10.528;2023-07-28T06:32:59;99772.97;;;17.27;100.00
76108;BME280;64834;52.516;10.528;2023-07-28T06:35:24;99773.84;;;17.28;100.00
76108;BME280;64834;52.516;10.528;2023-07-28T06:37:50;99778.31;;;17.32;100.00
76108;BME280;64834;52.516;10.528;2023-07-28T06:40:15;99783.75;;;17.41;100.00
76108;BME280;64834;52.516;10.528;2023-07-28T06:42:40;99781.13;;;17.41;100.00
76108;BME280;64834;52.516;10.528;2023-07-28T06:45:06;99786.44;;;17.46;100.00
76108;BME280;64834;52.516;10.528;2023-07-28T06:47:32;99789.97;;;17.46;100.00
76108;BME280;64834;52.516;10.528;2023-07-28T06:49:57;99789.06;;;17.44;100.00
76108;BME280;64834;52.516;10.528;2023-07-28T06:52:22;99793.50;;;17.45;100.00
76108;BME280;64834;52.516;10.528;2023-07-28T06:54:48;99798.88;;;17.53;100.00
76108;BME280;64834;52.516;10.528;2023-07-28T06:57:14;99801.66;;;17.61;100.00
76108;BME280;64834;52.516;10.528;2023-07-28T06:59:40;99799.97;;;17.70;100.00
76108;BME280;64834;52.516;10.528;2023-07-28T07:02:06;99801.03;;;17.80;100.00
76108;BME280;64834;52.516;10.528;2023-07-28T07:04:31;99798.41;;;17.85;100.00
76108;BME280;64834;52.516;10.528;2023-07-28T07:06:57;99804.63;;;17.85;100.00
76108;BME280;64834;52.516;10.528;2023-07-28T07:09:22;99796.66;;;17.84;100.00
76108;BME280;64834;52.516;10.528;2023-07-28T07:11:48;99801.94;;;17.84;100.00
76108;BME280;64834;52.516;10.528;2023-07-28T07:14:13;99795.91;;;17.97;100.00
76108;BME280;64834;52.516;10.528;2023-07-28T07:16:39;99798.81;;;18.17;100.00
76108;BME280;64834;52.516;10.528;2023-07-28T07:19:04;99791.00;;;18.32;100.00
76108;BME280;64834;52.516;10.528;2023-07-28T07:21:30;99798.13;;;18.36;100.00
76108;BME280;64834;52.516;10.528;2023-07-28T07:23:55;99800.06;;;18.58;100.00
76108;BME280;64834;52.516;10.528;2023-07-28T07:26:20;99797.75;;;18.92;100.00
76108;BME280;64834;52.516;10.528;2023-07-28T07:28:46;99808.41;;;19.04;100.00
76108;BME280;64834;52.516;10.528;2023-07-28T07:31:12;99806.53;;;18.86;100.00
76108;BME280;64834;52.516;10.528;2023-07-28T07:33:38;99801.19;;;18.80;100.00
76108;BME280;64834;52.516;10.528;2023-07-28T07:36:04;99810.88;;;18.78;100.00
76108;BME280;64834;52.516;10.528;2023-07-28T07:38:29;99812.69;;;18.82;100.00
76108;BME280;64834;52.516;10.528;2023-07-28T07:40:54;99817.00;;;18.73;100.00
76108;BME280;64834;52.516;10.528;2023-07-28T07:43:20;99825.69;;;18.55;100.00
76108;BME280;64834;52.516;10.528;2023-07-28T07:45:46;99822.91;;;18.46;100.00
76108;BME280;64834;52.516;10.528;2023-07-28T07:48:12;99820.25;;;18.43;100.00
76108;BME280;64834;52.516;10.528;2023-07-28T07:50:38;99821.19;;;18.49;100.00
76108;BME280;64834;52.516;10.528;2023-07-28T07:53:03;99827.41;;;18.51;100.00
76108;BME280;64834;52.516;10.528;2023-07-28T07:55:28;99827.38;;;18.48;100.00
76108;BME280;64834;52.516;10.528;2023-07-28T07:57:54;99825.63;;;18.50;100.00
76108;BME280;64834;52.516;10.528;2023-07-28T08:00:19;99828.16;;;18.38;100.00
76108;BME280;64834;52.516;10.528;2023-07-28T08:02:45;99842.25;;;18.36;100.00
76108;BME280;64834;52.516;10.528;2023-07-28T08:05:10;99848.47;;;18.39;100.00
76108;BME280;64834;52.516;10.528;2023-07-28T08:07:35;99847.63;;;18.43;100.00
76108;BME280;64834;52.516;10.528;2023-07-28T08:10:01;99850.31;;;18.46;100.00
76108;BME280;64834;52.516;10.528;2023-07-28T08:12:27;99840.69;;;18.57;100.00
76108;BME280;64834;52.516;10.528;2023-07-28T08:14:53;99845.13;;;18.57;100.00
76108;BME280;64834;52.516;10.528;2023-07-28T08:17:18;99847.81;;;18.62;100.00
76108;BME280;64834;52.516;10.528;2023-07-28T08:19:44;99858.38;;;18.57;100.00
76108;BME280;64834;52.516;10.528;2023-07-28T08:22:09;99866.25;;;18.51;100.00
76108;BME280;64834;52.516;10.528;2023-07-28T08:24:35;99868.00;;;18.49;100.00
76108;BME280;64834;52.516;10.528;2023-07-28T08:27:00;99868.03;;;18.53;100.00
76108;BME280;64834;52.516;10.528;2023-07-28T08:29:25;99860.13;;;18.55;100.00
76108;BME280;64834;52.516;10.528;2023-07-28T08:31:51;99872.53;;;18.60;100.00
76108;BME280;64834;52.516;10.528;2023-07-28T08:34:16;99876.97;;;18.62;100.00
76108;BME280;64834;52.516;10.528;2023-07-28T08:36:42;99868.13;;;18.63;100.00
76108;BME280;64834;52.516;10.528;2023-07-28T08:39:08;99869.13;;;18.69;100.00
76108;BME280;64834;52.516;10.528;2023-07-28T08:41:34;99871.03;;;18.85;100.00
76108;BME280;64834;52.516;10.528;2023-07-28T08:44:00;99879.16;;;19.07;100.00
76108;BME280;64834;52.516;10.528;2023-07-28T08:46:25;99878.53;;;19.38;100.00
76108;BME280;64834;52.516;10.528;2023-07-28T08:48:51;99878.59;;;19.49;100.00
76108;BME280;64834;52.516;10.528;2023-07-28T08:51:16;99885.72;;;19.55;100.00
76108;BME280;64834;52.516;10.528;2023-07-28T08:53:41;99889.19;;;19.48;100.00
76108;BME280;64834;52.516;10.528;2023-07-28T08:56:07;99891.78;;;19.38;100.00
76108;BME280;64834;52.516;10.528;2023-07-28T08:58:32;99893.50;;;19.32;100.00
76108;BME280;64834;52.516;10.528;2023-07-28T09:00:58;99897.97;;;19.37;100.00
76108;BME280;64834;52.516;10.528;2023-07-28T09:03:26;99900.69;;;19.48;100.00
76108;BME280;64834;52.516;10.528;2023-07-28T09:05:58;99897.19;;;19.51;100.00
76108;BME280;64834;52.516;10.528;2023-07-28T09:08:24;99900.44;;;19.16;100.00
76108;BME280;64834;52.516;10.528;2023-07-28T09:10:49;99901.28;;;19.10;100.00
76108;BME280;64834;52.516;10.528;2023-07-28T09:13:16;99906.50;;;18.98;100.00
76108;BME280;64834;52.516;10.528;2023-07-28T09:15:42;99909.19;;;19.01;100.00
76108;BME280;64834;52.516;10.528;2023-07-28T09:18:12;99913.66;;;19.05;100.00
76108;BME280;64834;52.516;10.528;2023-07-28T09:20:39;99918.72;;;18.81;100.00
76108;BME280;64834;52.516;10.528;2023-07-28T09:23:05;99906.41;;;18.91;100.00
76108;BME280;64834;52.516;10.528;2023-07-28T09:25:31;99910.00;;;18.96;100.00
76108;BME280;64834;52.516;10.528;2023-07-28T09:27:57;99910.00;;;18.96;100.00
76108;BME280;64834;52.516;10.528;2023-07-28T09:30:23;99917.28;;;19.21;100.00
76108;BME280;64834;52.516;10.528;2023-07-28T09:32:51;99920.88;;;19.28;100.00
76108;BME280;64834;52.516;10.528;2023-07-28T09:35:17;99914.69;;;19.29;100.00
76108;BME280;64834;52.516;10.528;2023-07-28T09:37:45;99927.03;;;19.21;100.00
76108;BME280;64834;52.516;10.528;2023-07-28T09:40:12;99924.25;;;19.08;100.00
76108;BME280;64834;52.516;10.528;2023-07-28T09:42:42;99927.84;;;19.12;100.00
76108;BME280;64834;52.516;10.528;2023-07-28T09:45:09;99923.53;;;19.28;100.00
76108;BME280;64834;52.516;10.528;2023-07-28T09:47:35;99929.91;;;19.50;100.00
76108;BME280;64834;52.516;10.528;2023-07-28T09:50:07;99932.66;;;19.60;100.00
76108;BME280;64834;52.516;10.528;2023-07-28T09:52:39;99931.84;;;19.71;100.00
76108;BME280;64834;52.516;10.528;2023-07-28T09:55:08;99930.25;;;20.00;100.00
76108;BME280;64834;52.516;10.528;2023-07-28T09:57:39;99929.44;;;20.13;99.35
76108;BME280;64834;52.516;10.528;2023-07-28T10:00:10;99927.72;;;20.28;100.00
76108;BME280;64834;52.516;10.528;2023-07-28T10:02:38;99929.44;;;20.15;96.43
76108;BME280;64834;52.516;10.528;2023-07-28T10:05:05;99929.50;;;20.24;98.29
76108;BME280;64834;52.516;10.528;2023-07-28T10:07:35;99931.28;;;20.42;95.86
76108;BME280;64834;52.516;10.528;2023-07-28T10:10:04;99931.41;;;20.60;93.65
76108;BME280;64834;52.516;10.528;2023-07-28T10:12:40;99918.19;;;21.18;92.93
76108;BME280;64834;52.516;10.528;2023-07-28T10:15:07;99919.97;;;21.01;91.70
76108;BME280;64834;52.516;10.528;2023-07-28T10:17:34;99924.38;;;20.97;90.61
76108;BME280;64834;52.516;10.528;2023-07-28T10:20:10;99921.72;;;21.10;93.01
76108;BME280;64834;52.516;10.528;2023-07-28T10:22:52;99928.84;;;21.37;90.60
76108;BME280;64834;52.516;10.528;2023-07-28T10:25:25;99918.22;;;21.32;88.87
76108;BME280;64834;52.516;10.528;2023-07-28T10:27:50;99923.50;;;21.14;89.29
76108;BME280;64834;52.516;10.528;2023-07-28T10:30:16;99915.53;;;21.15;90.37
76108;BME280;64834;52.516;10.528;2023-07-28T10:32:43;99918.19;;;21.15;88.33
76108;BME280;64834;52.516;10.528;2023-07-28T10:35:23;99911.97;;;21.16;86.27
76108;BME280;64834;52.516;10.528;2023-07-28T10:37:49;99920.81;;;20.91;87.74
76108;BME280;64834;52.516;10.528;2023-07-28T10:40:27;99928.78;;;20.85;90.48
76108;BME280;64834;52.516;10.528;2023-07-28T10:42:54;99921.72;;;20.81;88.47
76108;BME280;64834;52.516;10.528;2023-07-28T10:45:20;99913.75;;;20.94;87.87
76108;BME280;64834;52.516;10.528;2023-07-28T10:47:46;99913.75;;;21.20;88.52
76108;BME280;64834;52.516;10.528;2023-07-28T10:50:12;99915.53;;;21.46;87.71
76108;BME280;64834;52.516;10.528;2023-07-28T10:52:42;99913.75;;;21.59;87.44
76108;BME280;64834;52.516;10.528;2023-07-28T10:55:18;99918.16;;;21.67;85.70
76108;BME280;64834;52.516;10.528;2023-07-28T10:57:46;99919.09;;;21.51;81.69
76108;BME280;64834;52.516;10.528;2023-07-28T11:00:15;99919.09;;;21.39;81.26
76108;BME280;64834;52.516;10.528;2023-07-28T11:02:49;99924.41;;;21.42;82.27
76108;BME280;64834;52.516;10.528;2023-07-28T11:05:21;99915.53;;;21.43;83.08
76108;BME280;64834;52.516;10.528;2023-07-28T11:07:58;99919.91;;;21.74;83.54
76108;BME280;64834;52.516;10.528;2023-07-28T11:10:25;99918.06;;;22.08;78.45
76108;BME280;64834;52.516;10.528;2023-07-28T11:12:51;99910.94;;;22.21;76.57
76108;BME280;64834;52.516;10.528;2023-07-28T11:15:18;99917.06;;;22.37;77.40
76108;BME280;64834;52.516;10.528;2023-07-28T11:17:48;99918.81;;;22.46;76.71
76108;BME280;64834;52.516;10.528;2023-07-28T11:20:20;99918.81;;;22.43;76.10
76108;BME280;64834;52.516;10.528;2023-07-28T11:22:51;99929.31;;;22.75;73.31
76108;BME280;64834;52.516;10.528;2023-07-28T11:25:17;99923.34;;;22.33;74.45
76108;BME280;64834;52.516;10.528;2023-07-28T11:27:43;99927.81;;;22.23;75.12
76108;BME280;64834;52.516;10.528;2023-07-28T11:30:12;99922.47;;;22.23;76.32
76108;BME280;64834;52.516;10.528;2023-07-28T11:32:38;99926.03;;;22.18;75.72
76108;BME280;64834;52.516;10.528;2023-07-28T11:35:07;99924.31;;;21.92;75.40
76108;BME280;64834;52.516;10.528;2023-07-28T11:37:34;99937.66;;;21.91;74.49
76108;BME280;64834;52.516;10.528;2023-07-28T11:40:05;99926.94;;;22.06;73.71
76108;BME280;64834;52.516;10.528;2023-07-28T11:42:37;99928.66;;;22.34;73.52
76108;BME280;64834;52.516;10.528;2023-07-28T11:45:04;99932.19;;;22.38;73.91
76108;BME280;64834;52.516;10.528;2023-07-28T11:47:30;99927.75;;;22.39;74.15
76108;BME280;64834;52.516;10.528;2023-07-28T11:49:56;99929.31;;;22.73;75.11
76108;BME280;64834;52.516;10.528;2023-07-28T11:52:36;99928.38;;;22.90;72.57
76108;BME280;64834;52.516;10.528;2023-07-28T11:55:06;99930.09;;;22.97;71.98
76108;BME280;64834;52.516;10.528;2023-07-28T11:57:32;99928.22;;;23.09;70.33
76108;BME280;64834;52.516;10.528;2023-07-28T11:59:58;99931.84;;;22.99;70.15
76108;BME280;64834;52.516;10.528;2023-07-28T12:02:25;99921.22;;;22.95;69.94
76108;BME280;64834;52.516;10.528;2023-07-28T12:04:51;99929.13;;;23.10;70.83
76108;BME280;64834;52.516;10.528;2023-07-28T12:07:19;99931.84;;;23.02;69.46
76108;BME280;64834;52.516;10.528;2023-07-28T12:09:48;99940.81;;;22.91;68.71
76108;BME280;64834;52.516;10.528;2023-07-28T12:12:16;99941.50;;;23.17;69.81
76108;BME280;64834;52.516;10.528;2023-07-28T12:14:41;99939.69;;;23.22;67.56
76108;BME280;64834;52.516;10.528;2023-07-28T12:17:14;99940.66;;;23.13;68.69
76108;BME280;64834;52.516;10.528;2023-07-28T12:19:54;99934.53;;;22.99;68.92
76108;BME280;64834;52.516;10.528;2023-07-28T12:22:20;99951.53;;;22.78;68.08
76108;BME280;64834;52.516;10.528;2023-07-28T12:24:45;99954.25;;;22.71;69.47
76108;BME280;64834;52.516;10.528;2023-07-28T12:27:10;99952.34;;;22.97;69.86
76108;BME280;64834;52.516;10.528;2023-07-28T12:29:37;99949.41;;;23.34;68.15
76108;BME280;64834;52.516;10.528;2023-07-28T12:32:02;99948.31;;;23.55;69.05
76108;BME280;64834;52.516;10.528;2023-07-28T12:34:28;99950.78;;;23.82;67.33
76108;BME280;64834;52.516;10.528;2023-07-28T12:36:53;99957.13;;;24.49;65.15
76108;BME280;64834;52.516;10.528;2023-07-28T12:39:19;99948.63;;;24.15;62.14